Terminal Aerodrome Forecast
Issued by NWS Wilmington, OH

Current Version | Previous Version | Graphics & Text | Print | Product List | Glossary On
Versions: 1 2 3 4 5 6 7 8 9 10 11 12 13 14 15 16
328
FTUS41 KILN 161135
TAFILN
TAF
KILN 161135Z 1612/1712 26008KT P6SM FEW020 BKN100
     FM161900 27007KT P6SM SCT022
      TEMPO 1620/1624 BKN022
     FM170000 25005KT P6SM OVC015=

USA.gov is the U.S. government's official web portal to all federal, state and local government web resources and services.